This is the latest recevied weather packets stored in our database for station/object SV2ASS-2. If no packets are shown the sender has not sent any weather packets the latest 10 day(s).
| Time | Temp. | Humidity | Pressure | Rain* | Wind** | Luminosity | Snow |
|---|---|---|---|---|---|---|---|
| 1777611652 | 7.22° C | 69% | 1024.4 hPa | - | - | - | - |
| 1777610752 | 6.67° C | 68% | 1024.4 hPa | - | - | - | - |
| 1777609851 | 6.11° C | 69% | 1024 hPa | - | - | - | - |
| 1777608954 | 6.67° C | 67% | 1023.8 hPa | - | - | - | - |
| 1777608054 | 6.11° C | 66% | 1023.6 hPa | - | - | - | - |
| 1777607154 | 6.67° C | 63% | 1023.7 hPa | - | - | - | - |
| 1777606254 | 8.89° C | 59% | 1023.6 hPa | - | - | - | - |
| 1777605353 | 7.22° C | 65% | 1023.4 hPa | - | - | - | - |
| 1777604453 | 6.67° C | 67% | 1023.5 hPa | - | - | - | - |
| 1777603553 | 7.22° C | 66% | 1023.5 hPa | - | - | - | - |
| 1777602653 | 7.78° C | 66% | 1023.5 hPa | - | - | - | - |
| 1777585554 | 8.33° C | 65% | 1022.5 hPa | - | - | - | - |
| 1777584654 | 8.33° C | 67% | 1022.5 hPa | - | - | - | - |
| 1777583754 | 9.44° C | 67% | 1022.7 hPa | - | - | - | - |
| 1777582854 | 9.44° C | 68% | 1022.7 hPa | - | - | - | - |
| 1777581954 | 10° C | 65% | 1022.5 hPa | - | - | - | - |
| 1777580153 | 12.22° C | 60% | 1022.3 hPa | - | - | - | - |
| 1777577453 | 10° C | 57% | 1021.9 hPa | - | - | - | - |
| 1777576553 | 10° C | 65% | 1021.7 hPa | - | - | - | - |
| 1777575653 | 10° C | 66% | 1021.5 hPa | - | - | - | - |
| 1777574753 | 10.56° C | 63% | 1021.3 hPa | - | - | - | - |
| 1777573853 | 10.56° C | 63% | 1021.3 hPa | - | - | - | - |
| 1777572953 | 12.22° C | 54% | 1021.1 hPa | - | - | - | - |
| 1777572053 | 10.56° C | 65% | 1021 hPa | - | - | - | - |
| 1777571153 | 12.78° C | 60% | 1020.9 hPa | - | - | - | - |
* Rain since midnight (hover to see other rain measurements)
** Current wind speed in m/s (hover to see current wind gust speed)